Time;durP1;ratioP1;P1;durP2;ratioP2;P2;SDS_P1;SDS_P2;PMS_P1;PMS_P2;Temp;Humidity;BMP_temperature;BMP_pressure;BME280_temperature;BME280_humidity;BME280_pressure;Samples;Min_cycle;Max_cycle;Signal;HPM_P1;HPM_P2
2023/12/10 00:00:10;;;;;;;10.90;3.95;;;;;;;8.84;82.27;96858.88;5082939;28;20210;-73
2023/12/10 00:02:37;;;;;;;15.00;3.58;;;;;;;8.85;81.93;96871.34;5083464;28;20282;-73
2023/12/10 00:05:04;;;;;;;9.32;3.20;;;;;;;8.85;81.87;96874.03;5066972;28;20211;-73
2023/12/10 00:07:32;;;;;;;12.65;2.95;;;;;;;8.73;81.61;96873.94;5113521;28;20565;-73
2023/12/10 00:09:59;;;;;;;9.07;3.10;;;;;;;8.84;81.11;96885.88;5065473;28;20680;-73
2023/12/10 00:12:25;;;;;;;11.63;3.35;;;;;;;8.83;81.01;96893.13;5117030;28;20287;-73
2023/12/10 00:14:54;;;;;;;12.15;3.17;;;;;;;8.81;80.91;96892.53;5064475;28;20203;-73
2023/12/10 00:17:20;;;;;;;17.63;3.65;;;;;;;8.81;80.28;96905.19;5080686;28;20210;-73
2023/12/10 00:19:47;;;;;;;13.98;3.60;;;;;;;8.80;80.43;96900.84;5082523;28;20195;-73
2023/12/10 00:22:13;;;;;;;13.07;3.85;;;;;;;8.80;79.58;96914.31;5080139;28;20276;-74
2023/12/10 00:24:42;;;;;;;13.63;4.28;;;;;;;8.77;79.64;96916.41;5098261;28;20278;-73
2023/12/10 00:27:09;;;;;;;12.57;3.55;;;;;;;8.78;79.66;96930.72;5079274;28;20229;-73
2023/12/10 00:29:36;;;;;;;10.55;3.53;;;;;;;8.79;79.22;96936.94;5086424;28;20306;-73
2023/12/10 00:32:02;;;;;;;12.15;4.35;;;;;;;8.85;78.59;96942.31;5082697;28;20249;-73
2023/12/10 00:34:29;;;;;;;11.55;3.60;;;;;;;8.79;79.08;96939.66;5102757;28;20665;-73
2023/12/10 00:36:56;;;;;;;14.75;4.20;;;;;;;8.84;78.20;96931.72;5085535;28;20207;-73
2023/12/10 00:39:23;;;;;;;16.85;4.43;;;;;;;8.88;77.91;96941.88;5085726;28;20239;-74
2023/12/10 00:41:51;;;;;;;19.30;4.47;;;;;;;8.85;78.01;96930.69;5069396;28;20677;-74
2023/12/10 00:44:17;;;;;;;14.80;4.10;;;;;;;8.80;77.79;96941.31;5101767;28;20253;-73
2023/12/10 00:46:44;;;;;;;16.95;4.72;;;;;;;8.79;77.86;96932.38;5086627;28;20257;-73
2023/12/10 00:49:11;;;;;;;22.20;4.82;;;;;;;8.79;76.95;96942.34;5087030;28;20253;-73
2023/12/10 00:51:38;;;;;;;16.90;4.38;;;;;;;8.84;76.81;96950.63;5052691;28;20211;-74
2023/12/10 00:54:06;;;;;;;15.65;4.20;;;;;;;8.86;76.10;96970.09;5069883;28;20234;-73
2023/12/10 00:56:33;;;;;;;12.10;3.90;;;;;;;8.77;76.52;96961.47;5101377;28;20526;-74
2023/12/10 00:59:01;;;;;;;15.68;4.88;;;;;;;8.85;76.18;96987.34;5065885;28;20204;-73
2023/12/10 01:01:28;;;;;;;17.30;4.43;;;;;;;8.82;76.30;96995.88;5104933;28;20618;-73
2023/12/10 01:03:55;;;;;;;15.82;4.68;;;;;;;8.81;76.23;97002.31;5100971;28;20204;-73
2023/12/10 01:06:22;;;;;;;14.68;4.15;;;;;;;8.86;76.08;97007.88;5086804;28;20646;-73
2023/12/10 01:08:48;;;;;;;17.25;4.55;;;;;;;8.80;75.76;97020.34;5082769;28;20196;-73
2023/12/10 01:11:15;;;;;;;21.55;5.35;;;;;;;8.80;76.23;97030.31;5070980;28;20246;-73
2023/12/10 01:13:42;;;;;;;16.05;4.63;;;;;;;8.84;75.89;97040.47;5116590;27;20298;-73
2023/12/10 01:16:12;;;;;;;16.55;4.50;;;;;;;8.80;75.80;97041.94;5064086;28;20276;-74
2023/12/10 01:18:44;;;;;;;19.20;5.72;;;;;;;8.77;75.33;97059.38;5083424;28;20210;-73
2023/12/10 01:21:11;;;;;;;19.40;5.15;;;;;;;8.77;75.53;97055.06;5085181;28;20210;-73
2023/12/10 01:23:38;;;;;;;18.30;5.00;;;;;;;8.80;75.54;97063.53;5086092;28;20220;-74
2023/12/10 01:26:06;;;;;;;18.55;5.07;;;;;;;8.68;75.83;97065.25;5082106;28;20200;-73
2023/12/10 01:28:33;;;;;;;16.95;4.63;;;;;;;8.64;75.73;97070.25;5084844;28;20199;-73
2023/12/10 01:31:00;;;;;;;14.98;5.25;;;;;;;8.69;76.17;97100.13;5082679;28;20230;-73
2023/12/10 01:33:28;;;;;;;21.88;5.00;;;;;;;8.63;75.82;97095.56;5087314;28;20204;-73
2023/12/10 01:35:54;;;;;;;19.90;4.75;;;;;;;8.69;74.57;97097.41;5115419;27;20203;-73
2023/12/10 01:38:21;;;;;;;22.85;5.50;;;;;;;8.71;74.38;97081.84;5079970;28;20228;-73
2023/12/10 01:40:48;;;;;;;15.20;4.25;;;;;;;8.73;74.48;97112.13;5101748;28;20199;-73
2023/12/10 01:43:17;;;;;;;14.60;4.53;;;;;;;8.76;73.49;97132.47;5085463;28;20285;-73
2023/12/10 01:45:47;;;;;;;17.52;4.90;;;;;;;8.84;72.77;97123.28;5082200;28;20200;-73
2023/12/10 01:48:13;;;;;;;20.17;4.53;;;;;;;8.86;72.59;97124.72;5084090;28;20620;-73
2023/12/10 01:50:44;;;;;;;18.85;5.35;;;;;;;8.93;71.98;97128.22;5066167;28;20246;-73
2023/12/10 01:53:10;;;;;;;21.60;5.68;;;;;;;8.93;72.41;97143.59;5119789;27;20199;-73
2023/12/10 01:55:37;;;;;;;20.27;4.97;;;;;;;8.87;73.00;97149.84;5100450;28;20214;-73
2023/12/10 01:58:04;;;;;;;17.10;5.28;;;;;;;8.82;72.98;97152.34;5084307;28;20203;-73
2023/12/10 02:00:32;;;;;;;14.82;4.45;;;;;;;8.80;72.99;97143.63;5082208;28;20253;-73
2023/12/10 02:03:00;;;;;;;16.73;4.60;;;;;;;8.79;72.89;97141.97;5066089;28;20218;-72
2023/12/10 02:05:26;;;;;;;12.77;3.88;;;;;;;8.80;71.63;97166.03;5084336;28;20204;-73
2023/12/10 02:07:55;;;;;;;16.92;4.22;;;;;;;8.82;71.65;97163.13;5050112;28;20286;-73
2023/12/10 02:10:21;;;;;;;16.35;4.35;;;;;;;8.74;72.09;97146.16;5117427;27;20698;-73
2023/12/10 02:12:52;;;;;;;14.43;3.60;;;;;;;8.88;71.96;97165.81;5066959;28;20215;-73
2023/12/10 02:15:19;;;;;;;18.90;5.00;;;;;;;8.77;72.54;97150.31;5082701;28;20183;-73
2023/12/10 02:17:46;;;;;;;17.00;4.35;;;;;;;8.88;72.74;97165.81;5099352;28;20674;-73
2023/12/10 02:20:13;;;;;;;12.90;4.40;;;;;;;8.93;71.83;97168.72;5081183;28;20227;-73
2023/12/10 02:22:44;;;;;;;15.00;4.63;;;;;;;8.95;72.20;97168.50;5082763;28;20654;-73
2023/12/10 02:25:14;;;;;;;13.98;4.28;;;;;;;8.88;72.70;97175.78;5080477;28;20214;-74
2023/12/10 02:27:44;;;;;;;18.67;4.20;;;;;;;8.81;73.97;97193.84;5061846;28;20195;-73
2023/12/10 02:30:11;;;;;;;20.88;4.45;;;;;;;8.97;73.59;97186.13;5066822;28;20277;-73
2023/12/10 02:32:38;;;;;;;16.60;4.57;;;;;;;8.83;74.81;97179.09;5101281;28;20204;-72
2023/12/10 02:35:06;;;;;;;17.67;4.80;;;;;;;8.77;75.67;97188.88;5081168;28;20212;-73
2023/12/10 02:37:33;;;;;;;14.38;3.97;;;;;;;8.71;76.71;97208.63;5067336;28;20238;-73
2023/12/10 02:40:00;;;;;;;14.73;4.70;;;;;;;8.77;77.72;97219.63;5084103;28;20275;-73
2023/12/10 02:42:27;;;;;;;15.82;4.10;;;;;;;8.56;80.48;97208.03;5083505;28;20572;-73
2023/12/10 02:44:55;;;;;;;16.80;3.63;;;;;;;8.12;82.02;97213.22;5082799;28;20714;-74
2023/12/10 02:47:22;;;;;;;12.13;2.83;;;;;;;7.86;83.74;97233.69;5063790;28;20595;-73
2023/12/10 02:49:48;;;;;;;10.48;2.65;;;;;;;7.62;85.78;97247.75;5080970;28;20227;-74
2023/12/10 02:52:16;;;;;;;6.97;2.20;;;;;;;7.30;87.04;97265.44;5081938;28;20227;-74
2023/12/10 02:54:44;;;;;;;8.32;2.00;;;;;;;7.01;86.69;97228.88;5048046;28;20245;-74
2023/12/10 02:57:10;;;;;;;5.20;1.85;;;;;;;6.91;86.00;97239.16;5081156;28;20296;-74
2023/12/10 02:59:37;;;;;;;6.90;2.60;;;;;;;6.97;84.38;97233.00;5100125;28;20211;-73
2023/12/10 03:02:05;;;;;;;6.75;2.00;;;;;;;7.00;85.37;97238.81;5083351;28;20249;-74
2023/12/10 03:04:32;;;;;;;8.45;2.40;;;;;;;7.02;85.42;97249.38;5101547;28;20204;-73
2023/12/10 03:06:59;;;;;;;8.02;2.53;;;;;;;7.14;82.88;97228.13;5081256;28;20261;-73
2023/12/10 03:09:25;;;;;;;10.57;3.28;;;;;;;7.33;80.87;97233.56;5061954;28;20222;-74
2023/12/10 03:11:52;;;;;;;10.48;3.40;;;;;;;7.33;80.88;97230.06;5065758;28;20768;-73
2023/12/10 03:14:19;;;;;;;14.13;3.13;;;;;;;7.21;81.47;97224.41;5081267;28;20196;-73
2023/12/10 03:16:45;;;;;;;15.57;3.53;;;;;;;7.35;81.12;97244.97;5080311;28;20253;-73
2023/12/10 03:19:14;;;;;;;11.32;3.00;;;;;;;7.33;81.03;97243.50;5083558;28;20228;-74
2023/12/10 03:21:40;;;;;;;7.25;2.35;;;;;;;7.26;82.12;97256.94;5099845;28;20192;-73
2023/12/10 03:24:07;;;;;;;6.68;2.60;;;;;;;7.40;79.95;97255.97;5098116;28;20223;-74
2023/12/10 03:26:34;;;;;;;8.45;2.97;;;;;;;7.49;78.76;97261.97;5065015;28;20204;-73
2023/12/10 03:29:00;;;;;;;6.88;2.88;;;;;;;7.46;79.65;97264.28;5079585;28;20241;-73
2023/12/10 03:31:27;;;;;;;11.27;2.85;;;;;;;7.34;79.63;97266.69;5082068;28;20625;-74
2023/12/10 03:33:54;;;;;;;10.05;2.85;;;;;;;7.49;78.75;97286.22;5066337;28;20219;-73
2023/12/10 03:36:23;;;;;;;8.02;2.70;;;;;;;7.49;78.97;97261.16;5098816;28;20206;-73
2023/12/10 03:38:49;;;;;;;7.82;2.95;;;;;;;7.43;78.65;97275.44;5063647;28;20223;-73
2023/12/10 03:41:16;;;;;;;11.63;3.47;;;;;;;7.57;77.66;97304.06;5100949;28;20199;-73
2023/12/10 03:43:42;;;;;;;10.75;2.95;;;;;;;7.57;77.44;97274.44;5084396;28;20227;-73
2023/12/10 03:46:09;;;;;;;12.07;2.75;;;;;;;7.64;77.35;97288.75;5080622;28;20256;-73
2023/12/10 03:48:36;;;;;;;13.40;3.20;;;;;;;7.52;78.11;97290.34;5096204;28;20231;-73
2023/12/10 03:51:02;;;;;;;9.60;3.33;;;;;;;7.61;76.32;97287.31;5083010;28;20249;-73
2023/12/10 03:53:30;;;;;;;12.02;3.10;;;;;;;7.67;75.75;97326.06;5066596;28;20239;-73
2023/12/10 03:55:57;;;;;;;13.55;3.55;;;;;;;7.75;74.95;97321.34;5080978;28;20553;-73
2023/12/10 03:58:24;;;;;;;12.10;3.35;;;;;;;7.82;74.28;97321.34;5063519;28;20204;-73
2023/12/10 04:00:50;;;;;;;7.40;2.60;;;;;;;7.84;74.34;97321.13;5082393;28;20200;-74
2023/12/10 04:03:18;;;;;;;11.30;3.30;;;;;;;7.86;73.65;97306.44;5085027;28;20219;-74
2023/12/10 04:05:44;;;;;;;13.48;3.20;;;;;;;7.97;72.74;97327.41;5071549;28;20199;-72
2023/12/10 04:08:11;;;;;;;9.85;3.15;;;;;;;7.84;73.85;97345.38;5083281;28;20196;-73
2023/12/10 04:10:39;;;;;;;10.30;2.90;;;;;;;7.94;73.24;97341.28;5100604;28;20595;-72
2023/12/10 04:13:06;;;;;;;10.40;3.33;;;;;;;7.99;72.80;97344.19;5084238;28;20272;-73
2023/12/10 04:15:34;;;;;;;12.73;3.28;;;;;;;8.00;72.59;97362.03;5066148;28;20207;-73
2023/12/10 04:18:00;;;;;;;11.05;3.03;;;;;;;8.11;71.39;97344.44;5084325;28;20215;-73
2023/12/10 04:20:27;;;;;;;9.95;2.97;;;;;;;8.07;71.29;97353.97;5085233;28;20256;-73
2023/12/10 04:22:54;;;;;;;11.95;3.20;;;;;;;8.14;71.42;97356.66;5082697;28;20279;-74
2023/12/10 04:25:22;;;;;;;12.82;2.88;;;;;;;8.20;71.62;97343.19;5066663;28;21065;-73
2023/12/10 04:27:50;;;;;;;9.50;3.00;;;;;;;8.09;72.00;97347.34;5101326;28;20295;-73
2023/12/10 04:30:19;;;;;;;10.77;2.80;;;;;;;8.15;72.82;97369.94;5116011;27;20237;-73
2023/12/10 04:32:46;;;;;;;10.95;3.88;;;;;;;8.19;71.56;97371.19;5069321;28;20232;-73
2023/12/10 04:35:12;;;;;;;18.02;3.55;;;;;;;8.20;71.93;97374.72;5119745;27;20280;-74
2023/12/10 04:37:39;;;;;;;10.27;3.50;;;;;;;8.14;71.43;97380.91;5103377;28;20204;-74
2023/12/10 04:40:07;;;;;;;10.27;3.22;;;;;;;8.12;71.32;97364.97;5102038;28;20204;-73
2023/12/10 04:42:34;;;;;;;10.07;3.13;;;;;;;8.17;71.51;97369.72;5068044;28;20277;-73
2023/12/10 04:45:02;;;;;;;10.15;3.20;;;;;;;8.20;71.50;97380.09;5084966;28;20250;-73
2023/12/10 04:47:29;;;;;;;11.52;3.60;;;;;;;8.21;71.06;97377.19;5088175;28;20203;-74
2023/12/10 04:49:55;;;;;;;9.52;3.00;;;;;;;8.17;70.40;97383.19;5067539;28;20200;-73
2023/12/10 04:52:22;;;;;;;16.30;4.22;;;;;;;8.19;70.44;97394.59;5068014;28;20578;-73
2023/12/10 04:54:50;;;;;;;11.50;3.03;;;;;;;8.25;69.53;97383.84;5085469;28;20285;-73
2023/12/10 04:57:17;;;;;;;9.32;3.03;;;;;;;8.28;69.70;97396.09;5084506;28;20248;-73
2023/12/10 04:59:44;;;;;;;11.63;3.38;;;;;;;8.20;70.40;97423.22;5081511;28;20199;-73
2023/12/10 05:02:12;;;;;;;10.88;3.25;;;;;;;8.16;70.03;97417.41;5080791;28;20207;-73
2023/12/10 05:04:38;;;;;;;12.38;3.10;;;;;;;8.19;69.01;97418.88;5061515;28;20742;-72
2023/12/10 05:07:05;;;;;;;10.45;2.97;;;;;;;8.22;69.21;97418.47;5086097;28;20248;-74
2023/12/10 05:09:32;;;;;;;11.52;2.85;;;;;;;8.28;69.43;97417.66;5085995;28;20603;-73
2023/12/10 05:11:59;;;;;;;14.15;3.35;;;;;;;8.19;69.12;97414.31;5096991;28;20216;-73
2023/12/10 05:14:26;;;;;;;10.35;3.47;;;;;;;8.19;68.39;97410.78;5082887;28;20730;-73
2023/12/10 05:16:52;;;;;;;9.90;3.25;;;;;;;8.18;67.79;97419.91;5083245;28;20239;-72
2023/12/10 05:19:21;;;;;;;10.65;2.80;;;;;;;8.35;67.30;97432.03;5083460;28;20625;-73
2023/12/10 05:21:47;;;;;;;11.65;2.85;;;;;;;8.22;67.20;97448.13;5064829;28;20249;-73
2023/12/10 05:24:14;;;;;;;12.50;2.90;;;;;;;8.28;66.55;97436.53;5067628;28;20256;-73
2023/12/10 05:26:41;;;;;;;10.75;3.28;;;;;;;8.29;65.95;97417.47;5079941;28;20296;-73
2023/12/10 05:29:07;;;;;;;7.43;2.70;;;;;;;8.22;67.01;97426.56;5101559;28;20199;-73
2023/12/10 05:31:34;;;;;;;9.40;2.78;;;;;;;8.20;66.58;97447.47;5084039;28;20287;-73
2023/12/10 05:34:01;;;;;;;10.88;2.95;;;;;;;8.27;66.14;97442.97;5066805;28;20288;-72
2023/12/10 05:36:29;;;;;;;11.10;2.72;;;;;;;8.25;64.86;97431.53;5069364;28;20244;-73
2023/12/10 05:38:56;;;;;;;11.77;3.25;;;;;;;8.32;63.98;97443.19;5082540;28;20208;-72
2023/12/10 05:41:22;;;;;;;9.55;3.50;;;;;;;8.28;65.24;97450.84;5065330;28;20210;-73
2023/12/10 05:43:49;;;;;;;12.27;3.25;;;;;;;8.30;64.87;97450.63;5079222;28;20292;-73
2023/12/10 05:46:16;;;;;;;11.77;2.95;;;;;;;8.22;64.71;97453.50;5100740;28;20192;-73
2023/12/10 05:48:42;;;;;;;10.50;2.55;;;;;;;8.18;65.33;97468.41;5087819;28;20195;-73
2023/12/10 05:51:09;;;;;;;9.70;3.05;;;;;;;8.15;65.51;97469.66;5087704;28;20664;-73
2023/12/10 05:53:38;;;;;;;8.82;2.08;;;;;;;8.20;64.96;97471.75;5069505;28;20703;-74
2023/12/10 05:56:05;;;;;;;14.00;2.90;;;;;;;8.33;64.94;97477.22;5070339;28;20207;-74
2023/12/10 05:58:32;;;;;;;11.60;2.83;;;;;;;8.23;65.14;97476.72;5081476;28;20203;-73
2023/12/10 06:00:59;;;;;;;11.02;3.38;;;;;;;8.21;65.16;97484.19;5088479;28;20227;-73
2023/12/10 06:03:28;;;;;;;7.80;2.88;;;;;;;8.30;64.78;97491.91;5060639;28;20604;-73
2023/12/10 06:05:54;;;;;;;8.65;2.95;;;;;;;8.23;64.98;97499.13;5099781;28;20192;-73
2023/12/10 06:08:21;;;;;;;5.07;2.78;;;;;;;8.23;65.29;97511.78;5068458;28;20233;-73
2023/12/10 06:10:50;;;;;;;10.00;3.30;;;;;;;8.27;65.12;97504.97;5082797;28;20672;-73
2023/12/10 06:13:18;;;;;;;9.27;2.92;;;;;;;8.32;64.26;97524.06;5095906;28;20211;-74
2023/12/10 06:15:46;;;;;;;9.23;3.33;;;;;;;8.21;64.61;97527.31;5081658;28;20200;-73
2023/12/10 06:18:12;;;;;;;9.00;3.03;;;;;;;8.11;65.25;97521.47;5087117;28;20775;-73
2023/12/10 06:20:40;;;;;;;8.27;2.47;;;;;;;8.18;64.05;97528.53;5081708;28;20202;-74
2023/12/10 06:23:07;;;;;;;7.97;2.47;;;;;;;8.12;64.45;97540.16;5100649;28;20229;-70
2023/12/10 06:25:33;;;;;;;9.30;2.90;;;;;;;8.13;63.87;97540.94;5082884;28;20214;-75
2023/12/10 06:28:02;;;;;;;8.35;2.63;;;;;;;8.19;63.31;97540.16;5074351;28;20260;-74
2023/12/10 06:30:29;;;;;;;9.75;2.30;;;;;;;8.22;63.57;97547.84;5078428;28;20207;-75
2023/12/10 06:32:56;;;;;;;9.05;2.70;;;;;;;8.32;63.05;97554.59;5071036;28;20200;-74
2023/12/10 06:35:23;;;;;;;13.48;3.42;;;;;;;8.32;62.88;97569.91;5085684;28;20232;-74
2023/12/10 06:37:50;;;;;;;9.90;2.70;;;;;;;8.16;63.24;97568.34;5083293;28;20207;-73
2023/12/10 06:40:17;;;;;;;11.55;2.70;;;;;;;8.22;63.32;97580.19;5045417;28;20206;-75
2023/12/10 06:42:44;;;;;;;9.93;3.45;;;;;;;8.16;63.75;97576.44;5078765;28;20265;-74
2023/12/10 06:45:15;;;;;;;11.40;2.65;;;;;;;8.11;63.77;97553.81;5078204;28;20195;-75
2023/12/10 06:47:43;;;;;;;11.00;2.70;;;;;;;8.07;64.33;97572.25;5098884;28;20200;-74
2023/12/10 06:50:10;;;;;;;10.98;2.80;;;;;;;8.08;64.15;97577.44;5093319;28;20644;-75
2023/12/10 06:52:37;;;;;;;11.10;2.97;;;;;;;8.15;64.03;97582.00;5095825;28;20215;-75
2023/12/10 06:55:04;;;;;;;9.55;2.83;;;;;;;8.11;64.56;97576.22;5059024;28;20661;-75
2023/12/10 06:57:32;;;;;;;7.65;2.72;;;;;;;8.15;64.70;97584.72;5074350;28;20279;-76
2023/12/10 06:59:59;;;;;;;5.47;2.20;;;;;;;8.21;64.68;97589.31;5048422;28;20207;-76
2023/12/10 07:02:27;;;;;;;7.88;2.72;;;;;;;8.09;65.36;97605.22;5061510;28;20242;-75
2023/12/10 07:04:54;;;;;;;8.00;2.58;;;;;;;8.04;66.02;97592.34;5096711;28;20203;-75
2023/12/10 07:07:20;;;;;;;8.63;2.90;;;;;;;8.06;66.45;97578.66;5098685;28;20702;-75
2023/12/10 07:09:47;;;;;;;7.75;2.30;;;;;;;7.91;66.81;97592.22;5079029;28;20194;-75
2023/12/10 07:12:14;;;;;;;12.27;2.80;;;;;;;7.98;66.46;97593.13;5080001;28;20306;-75
2023/12/10 07:14:41;;;;;;;6.50;2.20;;;;;;;7.95;66.68;97593.50;5081373;28;20199;-75
2023/12/10 07:17:08;;;;;;;6.53;2.47;;;;;;;7.99;66.44;97600.19;5063588;28;20252;-75
2023/12/10 07:19:36;;;;;;;8.57;2.40;;;;;;;7.91;66.43;97584.16;5060122;28;20655;-75
2023/12/10 07:22:03;;;;;;;9.20;2.92;;;;;;;8.07;65.37;97577.63;5078879;28;20725;-75
2023/12/10 07:24:31;;;;;;;8.18;2.67;;;;;;;8.04;66.61;97581.56;5080961;28;20217;-74
2023/12/10 07:26:58;;;;;;;8.68;2.40;;;;;;;7.98;66.90;97589.59;5061397;28;20203;-76
2023/12/10 07:29:26;;;;;;;9.13;2.70;;;;;;;7.94;67.16;97604.47;5064295;28;20203;-69
2023/12/10 07:31:52;;;;;;;9.27;2.97;;;;;;;7.89;67.04;97610.44;5095956;28;20314;-75
2023/12/10 07:34:20;;;;;;;7.43;2.03;;;;;;;7.96;66.72;97600.56;5076117;28;20218;-75
2023/12/10 07:36:48;;;;;;;10.20;2.63;;;;;;;7.91;66.69;97619.19;5080244;28;20216;-74
2023/12/10 07:39:15;;;;;;;9.10;2.42;;;;;;;7.93;66.51;97602.81;5095342;28;20579;-74
2023/12/10 07:41:42;;;;;;;8.93;2.60;;;;;;;8.06;65.75;97590.28;5075373;28;20203;-74
2023/12/10 07:44:08;;;;;;;7.80;2.40;;;;;;;8.07;65.82;97608.13;5061067;28;20207;-75
2023/12/10 07:46:35;;;;;;;9.63;2.70;;;;;;;8.09;65.82;97632.19;5034911;28;20202;-72
2023/12/10 07:49:02;;;;;;;8.90;2.35;;;;;;;8.11;65.01;97623.91;5015337;28;20331;-73
2023/12/10 07:51:29;;;;;;;12.15;3.05;;;;;;;8.14;65.41;97624.31;5079862;28;20294;-73
2023/12/10 07:53:57;;;;;;;6.82;2.60;;;;;;;8.18;65.57;97622.06;5112399;28;20227;-73
2023/12/10 07:56:24;;;;;;;8.63;2.80;;;;;;;8.24;65.59;97634.75;5079567;28;20257;-73
2023/12/10 07:58:51;;;;;;;9.73;2.92;;;;;;;8.30;65.52;97640.19;5113460;28;20248;-73
2023/12/10 08:01:17;;;;;;;10.85;2.25;;;;;;;8.24;65.63;97651.75;5096070;28;20241;-73
2023/12/10 08:03:44;;;;;;;9.05;2.10;;;;;;;8.27;65.17;97643.28;5082658;28;20282;-74
2023/12/10 08:06:11;;;;;;;8.52;2.83;;;;;;;8.26;65.43;97648.88;5095864;28;20336;-73
2023/12/10 08:08:37;;;;;;;4.57;2.05;;;;;;;8.33;64.99;97661.41;5061589;28;20325;-72
2023/12/10 08:11:06;;;;;;;8.98;2.78;;;;;;;8.35;64.70;97658.50;5077254;28;20199;-73
2023/12/10 08:13:33;;;;;;;7.07;2.30;;;;;;;8.35;65.09;97663.91;5078749;28;20216;-75
2023/12/10 08:15:59;;;;;;;9.93;2.63;;;;;;;8.38;64.38;97674.28;5073655;28;20211;-73
2023/12/10 08:18:26;;;;;;;7.50;2.45;;;;;;;8.44;63.86;97670.81;5056631;28;20345;-73
2023/12/10 08:20:53;;;;;;;7.82;2.20;;;;;;;8.60;63.60;97662.38;5097233;28;20211;-73
2023/12/10 08:23:20;;;;;;;6.20;2.95;;;;;;;8.64;63.64;97674.44;5075806;28;20227;-73
2023/12/10 08:25:47;;;;;;;8.85;2.60;;;;;;;8.60;63.88;97673.19;5079155;28;20289;-73
2023/12/10 08:28:15;;;;;;;11.07;3.13;;;;;;;8.53;63.54;97666.91;5097660;28;20191;-74
2023/12/10 08:30:41;;;;;;;7.00;2.13;;;;;;;8.57;63.75;97667.34;5093183;28;20204;-73
2023/12/10 08:33:08;;;;;;;4.90;2.20;;;;;;;8.69;63.69;97688.19;5077847;28;20225;-74
2023/12/10 08:35:35;;;;;;;9.00;2.65;;;;;;;8.71;63.33;97685.28;5076197;28;20212;-73
2023/12/10 08:38:01;;;;;;;7.85;3.00;;;;;;;8.63;63.24;97683.56;5049904;28;20261;-73
2023/12/10 08:40:28;;;;;;;8.88;2.67;;;;;;;8.75;62.76;97678.47;5062726;28;20200;-75
2023/12/10 08:42:55;;;;;;;8.82;2.85;;;;;;;8.75;62.62;97670.38;5079354;28;20245;-75
2023/12/10 08:45:23;;;;;;;12.27;2.40;;;;;;;8.70;63.15;97679.06;5078533;28;20272;-75
2023/12/10 08:47:49;;;;;;;7.38;2.75;;;;;;;8.68;63.32;97682.97;5078367;28;20249;-75
2023/12/10 08:50:16;;;;;;;6.88;2.28;;;;;;;8.66;62.66;97682.34;5081603;28;20207;-74
2023/12/10 08:52:43;;;;;;;7.88;2.83;;;;;;;8.70;62.31;97683.63;5083331;28;20220;-75
2023/12/10 08:55:10;;;;;;;6.53;2.45;;;;;;;8.73;62.85;97694.00;5117871;27;20226;-74
2023/12/10 08:57:37;;;;;;;8.80;2.67;;;;;;;9.02;61.79;97698.31;5084048;28;20213;-75
2023/12/10 09:00:05;;;;;;;9.00;2.40;;;;;;;9.54;61.17;97688.72;5103511;28;20207;-75
2023/12/10 09:02:33;;;;;;;6.78;2.50;;;;;;;9.67;61.12;97683.34;5049641;28;20195;-75
2023/12/10 09:05:00;;;;;;;7.88;2.50;;;;;;;9.67;61.73;97696.84;5114164;27;20203;-74
2023/12/10 09:07:27;;;;;;;8.15;2.80;;;;;;;10.05;61.11;97695.25;5069434;28;20269;-75
2023/12/10 09:09:59;;;;;;;8.25;2.47;;;;;;;10.38;59.41;97684.44;5102171;28;20205;-74
2023/12/10 09:12:26;;;;;;;6.95;2.30;;;;;;;10.08;61.02;97696.69;5080973;28;20219;-75
2023/12/10 09:14:53;;;;;;;13.15;3.20;;;;;;;9.95;61.77;97699.38;5066393;28;20192;-74
2023/12/10 09:17:19;;;;;;;7.30;2.20;;;;;;;9.86;61.91;97704.16;5083296;28;20659;-74
2023/12/10 09:19:48;;;;;;;11.07;3.00;;;;;;;9.53;63.16;97716.75;5089999;28;20253;-77
2023/12/10 09:22:14;;;;;;;6.18;2.20;;;;;;;9.34;63.16;97721.91;5067444;28;20275;-71
2023/12/10 09:24:41;;;;;;;8.27;2.20;;;;;;;9.10;64.98;97717.00;5082722;28;20233;-73
2023/12/10 09:27:08;;;;;;;6.85;2.40;;;;;;;8.94;65.25;97734.38;5080734;28;20203;-73
2023/12/10 09:29:38;;;;;;;12.27;2.38;;;;;;;8.73;66.21;97732.63;5081217;28;20539;-73
2023/12/10 09:32:05;;;;;;;11.57;2.50;;;;;;;8.58;67.17;97714.88;5097842;28;20203;-74
2023/12/10 09:34:32;;;;;;;7.03;2.03;;;;;;;8.45;67.60;97722.88;5085748;28;20219;-74
2023/12/10 09:37:00;;;;;;;9.73;2.97;;;;;;;8.53;67.88;97737.03;5081429;28;20253;-73
2023/12/10 09:39:27;;;;;;;9.20;2.17;;;;;;;9.13;66.60;97749.00;5083424;28;20725;-73
2023/12/10 09:41:54;;;;;;;6.65;2.45;;;;;;;9.14;66.08;97739.88;5100067;28;20649;-73
2023/12/10 09:44:22;;;;;;;6.72;2.00;;;;;;;9.03;66.46;97749.41;5102327;28;20215;-73
2023/12/10 09:46:49;;;;;;;5.53;2.03;;;;;;;8.85;67.59;97748.22;5065509;28;20200;-73
2023/12/10 09:49:16;;;;;;;5.80;2.92;;;;;;;8.64;68.13;97735.66;5083993;28;20243;-73
2023/12/10 09:51:43;;;;;;;7.60;2.00;;;;;;;8.62;70.16;97741.25;5117256;27;20211;-74
2023/12/10 09:54:11;;;;;;;7.15;3.05;;;;;;;8.47;71.50;97737.81;5102403;28;20227;-73
2023/12/10 09:56:37;;;;;;;9.20;2.97;;;;;;;8.33;71.69;97736.06;5116385;27;20260;-74
2023/12/10 09:59:04;;;;;;;10.05;2.50;;;;;;;8.52;71.76;97735.34;5098998;28;20240;-74
2023/12/10 10:01:30;;;;;;;7.07;2.10;;;;;;;8.51;71.39;97749.88;5101013;28;20215;-74
2023/12/10 10:04:00;;;;;;;6.30;2.33;;;;;;;8.38;72.04;97744.41;5083920;28;20236;-74
2023/12/10 10:06:27;;;;;;;6.80;2.10;;;;;;;8.33;71.97;97739.59;5096772;28;20206;-73
2023/12/10 10:08:54;;;;;;;12.63;2.70;;;;;;;8.49;71.79;97734.91;5067170;28;20260;-73
2023/12/10 10:11:22;;;;;;;8.73;2.33;;;;;;;8.37;71.56;97732.78;5066284;28;20204;-73
2023/12/10 10:13:51;;;;;;;10.73;2.47;;;;;;;8.40;71.53;97739.66;5100748;28;20230;-73
2023/12/10 10:16:18;;;;;;;6.70;2.00;;;;;;;8.50;71.50;97740.13;5100569;28;20198;-72
2023/12/10 10:18:48;;;;;;;7.85;2.40;;;;;;;8.60;70.80;97743.31;5081948;28;20732;-74
2023/12/10 10:21:15;;;;;;;7.57;2.45;;;;;;;8.62;70.47;97754.72;5083311;28;20230;-73
2023/12/10 10:23:42;;;;;;;7.57;2.67;;;;;;;8.75;70.35;97757.53;5081143;28;20244;-73
2023/12/10 10:26:10;;;;;;;6.40;2.25;;;;;;;8.66;70.18;97753.31;5079348;28;20286;-73
2023/12/10 10:28:39;;;;;;;6.22;1.98;;;;;;;8.71;70.11;97748.16;5118512;27;20221;-73
2023/12/10 10:31:06;;;;;;;7.88;2.63;;;;;;;8.62;70.27;97741.25;5083246;28;20215;-74
2023/12/10 10:33:33;;;;;;;6.57;2.05;;;;;;;8.59;70.10;97755.13;5083314;28;20211;-74
2023/12/10 10:36:00;;;;;;;7.35;2.00;;;;;;;8.69;70.33;97763.72;5083027;28;20215;-74
2023/12/10 10:38:28;;;;;;;6.57;2.05;;;;;;;8.65;69.64;97740.84;5113777;27;20667;-73
2023/12/10 10:40:57;;;;;;;7.95;2.53;;;;;;;8.66;69.40;97756.00;5084833;28;20207;-74
2023/12/10 10:43:24;;;;;;;5.82;2.40;;;;;;;8.54;70.18;97746.78;5079530;28;20270;-73
2023/12/10 10:45:53;;;;;;;6.88;2.10;;;;;;;8.50;70.29;97734.72;5084978;28;20238;-73
2023/12/10 10:48:20;;;;;;;5.20;1.98;;;;;;;8.65;70.70;97742.72;5116055;27;20207;-74
2023/12/10 10:50:47;;;;;;;6.88;2.42;;;;;;;8.66;70.49;97753.31;5083515;28;20249;-74
2023/12/10 10:53:14;;;;;;;6.82;2.20;;;;;;;8.74;70.47;97741.53;5081453;28;20773;-73
2023/12/10 10:55:46;;;;;;;8.43;2.08;;;;;;;9.00;69.56;97728.19;5065131;28;20270;-74
2023/12/10 10:58:27;;;;;;;10.63;2.60;;;;;;;8.88;69.58;97731.66;5111112;27;20199;-74
2023/12/10 11:00:56;;;;;;;5.18;1.60;;;;;;;8.83;70.25;97731.41;5098660;28;20199;-73
2023/12/10 11:03:25;;;;;;;8.10;2.28;;;;;;;8.83;70.61;97721.44;5082411;28;20204;-74
2023/12/10 11:05:52;;;;;;;7.18;2.55;;;;;;;8.83;71.04;97726.00;5083322;28;20192;-74
2023/12/10 11:08:19;;;;;;;8.35;3.42;;;;;;;8.93;72.23;97727.31;5063420;28;20656;-73
2023/12/10 11:10:52;;;;;;;7.75;2.45;;;;;;;8.73;71.85;97723.69;5082018;28;20602;-73
2023/12/10 11:13:45;;;;;;;6.10;2.00;;;;;;;8.71;71.64;97717.66;5080730;28;20251;-73
2023/12/10 11:16:13;;;;;;;6.45;2.22;;;;;;;8.66;72.05;97720.94;5083357;28;20688;-73
2023/12/10 11:18:50;;;;;;;8.57;2.72;;;;;;;8.66;71.08;97726.34;5099791;28;20256;-72
2023/12/10 11:21:16;;;;;;;7.35;1.90;;;;;;;8.71;70.69;97728.44;5113868;27;20203;-73
2023/12/10 11:23:45;;;;;;;7.80;2.30;;;;;;;8.75;70.70;97717.06;5083427;28;20202;-73
2023/12/10 11:26:12;;;;;;;6.47;1.90;;;;;;;8.96;69.87;97728.78;5079667;28;20195;-73
2023/12/10 11:28:38;;;;;;;4.82;2.30;;;;;;;9.19;69.08;97725.78;5101486;28;20207;-73
2023/12/10 11:31:06;;;;;;;7.20;2.67;;;;;;;9.14;68.90;97745.28;5063884;28;20276;-73
2023/12/10 11:33:38;;;;;;;9.25;3.05;;;;;;;8.92;69.76;97738.31;5083312;28;20268;-73
2023/12/10 11:36:05;;;;;;;6.50;2.45;;;;;;;8.89;70.90;97747.63;5082819;28;20257;-73